createdAt,value
2019-02-14T00:01:15.446Z,100.00
2019-02-14T00:03:43.723Z,100.00
2019-02-14T00:06:11.984Z,100.00
2019-02-14T00:08:40.245Z,100.00
2019-02-14T00:11:08.506Z,100.00
2019-02-14T00:13:36.773Z,100.00
2019-02-14T00:16:05.034Z,100.00
2019-02-14T00:18:33.317Z,100.00
2019-02-14T00:21:01.584Z,100.00
2019-02-14T00:23:29.855Z,100.00
2019-02-14T00:25:58.113Z,100.00
2019-02-14T00:28:26.386Z,100.00
2019-02-14T00:30:54.645Z,100.00
2019-02-14T00:33:22.898Z,100.00
2019-02-14T00:35:51.168Z,100.00
2019-02-14T00:38:19.423Z,100.00
2019-02-14T00:40:47.679Z,100.00
2019-02-14T00:43:15.942Z,100.00
2019-02-14T00:45:44.204Z,100.00
2019-02-14T00:48:12.490Z,100.00
2019-02-14T00:50:40.741Z,100.00
2019-02-14T00:53:08.994Z,100.00
2019-02-14T00:55:37.244Z,100.00
2019-02-14T00:58:05.505Z,100.00
2019-02-14T01:00:33.836Z,100.00
2019-02-14T01:03:02.113Z,100.00
2019-02-14T01:05:33.625Z,100.00
2019-02-14T01:08:00.400Z,100.00
2019-02-14T01:10:28.662Z,100.00
2019-02-14T01:12:56.932Z,100.00
2019-02-14T01:18:14.151Z,100.00
2019-02-14T01:20:42.405Z,100.00
2019-02-14T01:23:10.666Z,100.00
2019-02-14T01:25:38.925Z,100.00
2019-02-14T01:28:07.203Z,100.00
2019-02-14T01:30:35.461Z,100.00
2019-02-14T01:33:03.718Z,100.00
2019-02-14T01:35:31.993Z,100.00
2019-02-14T01:38:00.248Z,100.00
2019-02-14T01:40:28.508Z,100.00
2019-02-14T01:42:56.770Z,100.00
2019-02-14T01:45:25.043Z,100.00
2019-02-14T01:47:53.302Z,100.00
2019-02-14T01:50:21.572Z,100.00
2019-02-14T01:52:49.838Z,100.00
2019-02-14T01:55:18.102Z,100.00
2019-02-14T01:57:46.366Z,100.00
2019-02-14T02:03:03.752Z,100.00
2019-02-14T02:05:32.008Z,100.00
2019-02-14T02:08:00.279Z,100.00
2019-02-14T02:11:02.643Z,100.00
2019-02-14T02:13:30.918Z,100.00
2019-02-14T02:15:59.177Z,100.00
2019-02-14T02:21:16.407Z,100.00
2019-02-14T02:23:44.665Z,100.00
2019-02-14T02:26:13.092Z,100.00
2019-02-14T02:28:41.355Z,100.00
2019-02-14T02:31:09.623Z,100.00
2019-02-14T02:33:38.886Z,100.00
2019-02-14T02:36:07.163Z,100.00
2019-02-14T02:38:35.427Z,100.00
2019-02-14T02:41:03.685Z,100.00
2019-02-14T02:43:31.947Z,100.00
2019-02-14T02:46:00.235Z,100.00
2019-02-14T02:48:28.497Z,100.00
2019-02-14T02:50:56.755Z,100.00
2019-02-14T02:53:25.032Z,100.00
2019-02-14T02:55:53.292Z,100.00
2019-02-14T02:58:21.554Z,100.00
2019-02-14T03:00:49.816Z,100.00
2019-02-14T03:03:18.073Z,100.00
2019-02-14T03:05:46.338Z,100.00
2019-02-14T03:08:14.641Z,100.00
2019-02-14T03:10:42.888Z,100.00
2019-02-14T03:13:11.147Z,100.00
2019-02-14T03:15:52.252Z,100.00
2019-02-14T03:18:20.509Z,100.00
2019-02-14T03:20:48.773Z,100.00
2019-02-14T03:23:17.048Z,100.00
2019-02-14T03:25:45.305Z,100.00
2019-02-14T03:28:13.560Z,100.00
2019-02-14T03:33:20.783Z,100.00
2019-02-14T03:35:49.053Z,100.00
2019-02-14T03:38:17.311Z,100.00
2019-02-14T03:40:45.561Z,100.00
2019-02-14T03:43:13.829Z,100.00
2019-02-14T03:45:42.394Z,100.00
2019-02-14T03:48:10.665Z,100.00
2019-02-14T03:50:38.943Z,100.00
2019-02-14T03:53:07.210Z,100.00
2019-02-14T03:55:35.470Z,100.00
2019-02-14T03:58:03.741Z,100.00
2019-02-14T04:00:31.995Z,100.00
2019-02-14T04:03:00.256Z,100.00
2019-02-14T04:05:28.531Z,100.00
2019-02-14T04:07:56.775Z,100.00
2019-02-14T04:10:25.048Z,100.00
2019-02-14T04:12:53.307Z,100.00
2019-02-14T04:15:21.569Z,100.00
2019-02-14T04:17:49.831Z,100.00
2019-02-14T04:20:18.107Z,100.00
2019-02-14T04:22:46.368Z,100.00
2019-02-14T04:25:14.626Z,100.00
2019-02-14T04:27:42.876Z,100.00
2019-02-14T04:30:51.186Z,100.00
2019-02-14T04:33:19.443Z,100.00
2019-02-14T04:35:47.727Z,100.00
2019-02-14T04:38:15.978Z,100.00
2019-02-14T04:40:44.233Z,100.00
2019-02-14T04:43:12.508Z,100.00
2019-02-14T04:45:40.763Z,100.00
2019-02-14T04:48:09.027Z,100.00
2019-02-14T04:50:37.301Z,100.00
2019-02-14T04:53:05.567Z,100.00
2019-02-14T04:55:33.835Z,100.00
2019-02-14T04:58:02.094Z,100.00
2019-02-14T05:00:30.357Z,100.00
2019-02-14T05:02:58.614Z,100.00
2019-02-14T05:05:26.870Z,100.00
2019-02-14T05:07:55.127Z,100.00
2019-02-14T05:10:23.396Z,100.00
2019-02-14T05:12:51.658Z,100.00
2019-02-14T05:15:19.936Z,100.00
2019-02-14T05:17:48.194Z,100.00
2019-02-14T05:20:16.456Z,100.00
2019-02-14T05:22:44.720Z,100.00
2019-02-14T05:25:12.996Z,100.00
2019-02-14T05:27:41.236Z,100.00
2019-02-14T05:30:28.846Z,100.00
2019-02-14T05:32:57.108Z,100.00
2019-02-14T05:35:25.378Z,100.00
2019-02-14T05:37:53.640Z,100.00
2019-02-14T05:40:21.919Z,100.00
2019-02-14T05:42:50.186Z,100.00
2019-02-14T05:45:18.451Z,100.00
2019-02-14T05:47:46.703Z,100.00
2019-02-14T05:50:54.993Z,100.00
2019-02-14T05:53:23.284Z,100.00
2019-02-14T05:55:51.568Z,100.00
2019-02-14T05:58:19.841Z,100.00
2019-02-14T06:00:48.100Z,100.00
2019-02-14T06:03:16.371Z,100.00
2019-02-14T06:05:44.622Z,100.00
2019-02-14T06:08:12.896Z,100.00
2019-02-14T06:10:41.171Z,100.00
2019-02-14T06:13:09.428Z,100.00
2019-02-14T06:15:37.703Z,100.00
2019-02-14T06:18:05.975Z,100.00
2019-02-14T06:20:34.229Z,100.00
2019-02-14T06:23:02.501Z,100.00
2019-02-14T06:25:30.753Z,100.00
2019-02-14T06:27:59.013Z,100.00
2019-02-14T06:30:27.267Z,100.00
2019-02-14T06:32:55.534Z,100.00
2019-02-14T06:35:23.794Z,100.00
2019-02-14T06:40:53.621Z,100.00
2019-02-14T06:43:21.908Z,100.00
2019-02-14T06:45:50.156Z,100.00
2019-02-14T06:48:18.417Z,100.00
2019-02-14T06:50:46.681Z,100.00
2019-02-14T06:53:14.945Z,100.00
2019-02-14T06:55:43.202Z,100.00
2019-02-14T06:58:12.807Z,100.00
2019-02-14T07:00:41.443Z,100.00
2019-02-14T07:03:09.693Z,100.00
2019-02-14T07:05:37.963Z,100.00
2019-02-14T07:08:06.225Z,100.00
2019-02-14T07:10:46.710Z,100.00
2019-02-14T07:13:14.966Z,100.00
2019-02-14T07:15:43.233Z,100.00
2019-02-14T07:18:11.511Z,100.00
2019-02-14T07:20:39.781Z,100.00
2019-02-14T07:23:08.039Z,100.00
2019-02-14T07:25:36.331Z,100.00
2019-02-14T07:28:04.557Z,100.00
2019-02-14T07:31:06.647Z,100.00
2019-02-14T07:33:34.901Z,100.00
2019-02-14T07:36:03.157Z,100.00
2019-02-14T07:38:31.422Z,100.00
2019-02-14T07:40:59.690Z,100.00
2019-02-14T07:43:27.962Z,100.00
2019-02-14T07:45:56.265Z,100.00
2019-02-14T07:48:24.535Z,100.00
2019-02-14T07:50:52.794Z,100.00
2019-02-14T07:53:21.058Z,100.00
2019-02-14T07:55:49.329Z,100.00
2019-02-14T07:58:17.597Z,100.00
2019-02-14T08:00:45.861Z,100.00
2019-02-14T08:03:14.149Z,100.00
2019-02-14T08:05:42.419Z,100.00
2019-02-14T08:08:10.677Z,100.00
2019-02-14T08:10:38.937Z,100.00
2019-02-14T08:13:07.204Z,100.00
2019-02-14T08:15:35.500Z,100.00
2019-02-14T08:18:03.841Z,100.00
2019-02-14T08:20:32.085Z,99.97
2019-02-14T08:23:00.351Z,99.99
2019-02-14T08:25:48.013Z,100.00
2019-02-14T08:28:16.280Z,100.00
2019-02-14T08:30:44.541Z,100.00
2019-02-14T08:33:12.804Z,100.00
2019-02-14T08:35:41.069Z,100.00
2019-02-14T08:38:09.333Z,100.00
2019-02-14T08:40:37.592Z,100.00
2019-02-14T08:43:05.858Z,100.00
2019-02-14T08:45:34.114Z,100.00
2019-02-14T08:48:02.501Z,100.00
2019-02-14T08:50:30.780Z,100.00
2019-02-14T08:52:59.036Z,100.00
2019-02-14T08:55:27.291Z,100.00
2019-02-14T08:57:55.557Z,100.00
2019-02-14T09:00:23.820Z,99.59
2019-02-14T09:02:52.070Z,99.30
2019-02-14T09:05:20.342Z,99.59
2019-02-14T09:07:54.776Z,98.92
2019-02-14T09:10:18.592Z,98.68
2019-02-14T09:12:46.854Z,98.05
2019-02-14T09:15:26.714Z,98.06
2019-02-14T09:17:54.973Z,97.80
2019-02-14T09:20:23.220Z,97.64
2019-02-14T09:22:51.475Z,96.84
2019-02-14T09:25:19.740Z,96.77
2019-02-14T09:27:47.990Z,96.63
2019-02-14T09:30:16.320Z,96.43
2019-02-14T09:32:44.577Z,95.65
2019-02-14T09:35:52.869Z,95.24
2019-02-14T09:38:21.139Z,94.38
2019-02-14T09:40:49.386Z,94.52
2019-02-14T09:43:17.640Z,95.25
2019-02-14T09:45:45.892Z,94.61
2019-02-14T09:48:15.185Z,94.87
2019-02-14T09:50:43.448Z,94.67
2019-02-14T09:53:11.700Z,94.41
2019-02-14T09:55:39.955Z,94.16
2019-02-14T09:58:08.216Z,93.84
2019-02-14T10:00:36.470Z,94.13
2019-02-14T10:03:04.764Z,93.26
2019-02-14T10:05:33.010Z,92.60
2019-02-14T10:08:01.275Z,91.51
2019-02-14T10:10:29.530Z,91.58
2019-02-14T10:12:57.773Z,91.11
2019-02-14T10:15:26.035Z,91.22
2019-02-14T10:17:54.306Z,91.16
2019-02-14T10:20:22.562Z,90.27
2019-02-14T10:22:50.804Z,89.71
2019-02-14T10:25:19.078Z,89.93
2019-02-14T10:28:06.670Z,90.08
2019-02-14T10:30:34.942Z,90.08
2019-02-14T10:33:03.179Z,89.51
2019-02-14T10:35:31.450Z,88.74
2019-02-14T10:37:59.703Z,88.34
2019-02-14T10:40:27.972Z,87.70
2019-02-14T10:42:56.233Z,87.79
2019-02-14T10:45:24.554Z,87.55
2019-02-14T10:47:52.820Z,87.68
2019-02-14T10:50:21.079Z,87.26
2019-02-14T10:52:49.352Z,87.28
2019-02-14T10:55:17.615Z,87.21
2019-02-14T10:57:45.870Z,86.68
2019-02-14T11:00:33.468Z,86.93
2019-02-14T11:03:01.717Z,86.83
2019-02-14T11:05:29.973Z,86.65
2019-02-14T11:07:58.236Z,86.39
2019-02-14T11:10:26.498Z,86.01
2019-02-14T11:12:54.750Z,86.03
2019-02-14T11:16:03.036Z,85.84
2019-02-14T11:18:31.312Z,85.67
2019-02-14T11:20:59.575Z,85.96
2019-02-14T11:23:27.843Z,85.45
2019-02-14T11:25:56.118Z,84.97
2019-02-14T11:28:24.358Z,84.38
2019-02-14T11:30:52.606Z,84.17
2019-02-14T11:33:20.926Z,83.81
2019-02-14T11:35:49.132Z,84.78
2019-02-14T11:38:17.389Z,84.44
2019-02-14T11:40:45.642Z,84.21
2019-02-14T11:43:13.909Z,84.13
2019-02-14T11:45:42.167Z,83.98
2019-02-14T11:48:10.434Z,83.38
2019-02-14T11:50:38.693Z,82.98
2019-02-14T11:53:13.901Z,81.90
2019-02-14T11:55:36.926Z,82.26
2019-02-14T11:58:05.172Z,81.07
2019-02-14T12:00:33.434Z,79.90
2019-02-14T12:03:01.703Z,79.56
2019-02-14T12:05:29.977Z,79.19
2019-02-14T12:07:58.226Z,78.43
2019-02-14T12:10:26.507Z,77.91
2019-02-14T12:12:54.759Z,77.79
2019-02-14T12:18:24.581Z,77.01
2019-02-14T12:20:52.837Z,76.78
2019-02-14T12:23:21.084Z,76.53
2019-02-14T12:25:49.344Z,76.33
2019-02-14T12:28:36.941Z,75.20
2019-02-14T12:31:05.217Z,75.20
2019-02-14T12:33:33.486Z,74.73
2019-02-14T12:36:01.756Z,74.06
2019-02-14T12:38:30.018Z,74.09
2019-02-14T12:40:58.269Z,73.99
2019-02-14T12:43:26.547Z,73.38
2019-02-14T12:45:54.802Z,72.84
2019-02-14T12:48:23.071Z,72.35
2019-02-14T12:50:51.336Z,70.29
2019-02-14T12:53:19.596Z,70.41
2019-02-14T12:55:47.927Z,69.71
2019-02-14T12:58:16.181Z,70.15
2019-02-14T13:00:44.444Z,69.61
2019-02-14T13:03:12.732Z,68.99
2019-02-14T13:05:41.006Z,69.55
2019-02-14T13:08:09.278Z,68.20
2019-02-14T13:10:37.533Z,68.58
2019-02-14T13:13:05.801Z,68.07
2019-02-14T13:15:34.124Z,67.11
2019-02-14T13:18:02.396Z,67.30
2019-02-14T13:20:30.660Z,66.21
2019-02-14T13:22:59.237Z,67.32
2019-02-14T13:25:27.507Z,65.34
2019-02-14T13:27:55.774Z,64.60
2019-02-14T13:30:43.411Z,62.83
2019-02-14T13:33:11.646Z,63.58
2019-02-14T13:35:39.897Z,64.07
2019-02-14T13:38:27.497Z,63.90
2019-02-14T13:40:55.763Z,63.90
2019-02-14T13:43:25.855Z,63.83
2019-02-14T13:45:54.104Z,63.04
2019-02-14T13:48:22.366Z,62.76
2019-02-14T13:50:50.616Z,62.50
2019-02-14T13:53:18.880Z,62.59
2019-02-14T13:55:47.147Z,60.97
2019-02-14T13:58:15.410Z,61.00
2019-02-14T14:00:43.723Z,60.60
2019-02-14T14:03:11.973Z,61.36
2019-02-14T14:05:40.300Z,61.31
2019-02-14T14:08:08.551Z,61.55
2019-02-14T14:10:36.832Z,61.29
2019-02-14T14:13:05.112Z,61.75
2019-02-14T14:15:33.375Z,60.81
2019-02-14T14:18:20.988Z,61.08
2019-02-14T14:20:49.267Z,61.14
2019-02-14T14:23:17.531Z,61.14
2019-02-14T14:25:45.790Z,60.94
2019-02-14T14:28:14.059Z,60.14
2019-02-14T14:30:42.316Z,60.97
2019-02-14T14:33:10.578Z,60.96
2019-02-14T14:35:38.841Z,60.79
2019-02-14T14:38:07.097Z,60.54
2019-02-14T14:40:35.363Z,60.53
2019-02-14T14:48:50.876Z,60.84
2019-02-14T14:51:19.162Z,61.28
2019-02-14T14:53:47.420Z,62.09
2019-02-14T14:56:15.681Z,61.24
2019-02-14T14:58:45.573Z,61.50
2019-02-14T15:01:13.936Z,61.78
2019-02-14T15:03:42.543Z,62.03
2019-02-14T15:06:10.799Z,62.66
2019-02-14T15:08:39.060Z,62.04
2019-02-14T15:11:07.327Z,62.53
2019-02-14T15:13:35.576Z,62.39
2019-02-14T15:16:03.834Z,62.20
2019-02-14T15:18:32.093Z,63.05
2019-02-14T15:21:00.351Z,63.01
2019-02-14T15:23:28.620Z,62.67
2019-02-14T15:25:56.870Z,63.23
2019-02-14T15:28:25.130Z,62.44
2019-02-14T15:30:53.422Z,62.49
2019-02-14T15:33:21.669Z,62.89
2019-02-14T15:35:49.930Z,63.59
2019-02-14T15:38:18.177Z,63.49
2019-02-14T15:40:46.445Z,63.87
2019-02-14T15:43:15.078Z,64.88
2019-02-14T15:45:43.340Z,65.03
2019-02-14T15:48:11.618Z,64.88
2019-02-14T15:50:39.991Z,64.68
2019-02-14T15:53:08.221Z,65.15
2019-02-14T15:55:38.540Z,65.87
2019-02-14T15:58:07.178Z,65.80
2019-02-14T16:00:36.474Z,66.01
2019-02-14T16:03:04.723Z,66.66
2019-02-14T16:05:32.980Z,67.71
2019-02-14T16:08:02.909Z,67.52
2019-02-14T16:10:31.480Z,68.89
2019-02-14T16:13:13.976Z,68.53
2019-02-14T16:15:42.232Z,68.78
2019-02-14T16:18:10.521Z,68.94
2019-02-14T16:20:40.383Z,70.20
2019-02-14T16:23:21.376Z,69.66
2019-02-14T16:25:51.534Z,69.66
2019-02-14T16:28:19.623Z,71.46
2019-02-14T16:30:47.892Z,71.91
2019-02-14T16:33:16.132Z,72.53
2019-02-14T16:35:44.392Z,73.62
2019-02-14T16:38:14.054Z,74.23
2019-02-14T16:40:42.622Z,74.54
2019-02-14T16:43:10.885Z,74.98
2019-02-14T16:45:39.169Z,75.86
2019-02-14T16:48:07.433Z,76.24
2019-02-14T16:50:35.708Z,76.50
2019-02-14T16:53:03.964Z,76.67
2019-02-14T16:55:51.771Z,77.09
2019-02-14T16:58:20.177Z,77.52
2019-02-14T17:00:48.477Z,78.32
2019-02-14T17:03:16.688Z,78.17
2019-02-14T17:05:44.941Z,78.88
2019-02-14T17:08:13.226Z,78.99
2019-02-14T17:10:41.486Z,79.47
2019-02-14T17:13:09.741Z,80.21
2019-02-14T17:15:37.998Z,80.36
2019-02-14T17:18:06.263Z,80.97
2019-02-14T17:20:34.519Z,82.19
2019-02-14T17:23:02.776Z,82.33
2019-02-14T17:25:31.026Z,81.32
2019-02-14T17:27:59.288Z,81.29
2019-02-14T17:30:27.544Z,81.39
2019-02-14T17:32:55.799Z,81.30
2019-02-14T17:35:24.065Z,82.41
2019-02-14T17:37:52.326Z,84.01
2019-02-14T17:40:20.575Z,84.36
2019-02-14T17:42:48.848Z,85.32
2019-02-14T17:45:17.107Z,85.53
2019-02-14T17:47:45.375Z,85.91
2019-02-14T17:50:13.647Z,85.97
2019-02-14T17:52:41.899Z,86.32
2019-02-14T17:55:50.182Z,86.96
2019-02-14T17:58:18.444Z,87.50
2019-02-14T18:00:46.700Z,87.63
2019-02-14T18:03:14.949Z,87.34
2019-02-14T18:05:43.208Z,86.61
2019-02-14T18:08:11.471Z,86.40
2019-02-14T18:10:39.720Z,86.32
2019-02-14T18:13:07.981Z,86.21
2019-02-14T18:15:36.241Z,86.43
2019-02-14T18:18:04.550Z,87.40
2019-02-14T18:20:32.759Z,87.72
2019-02-14T18:23:01.049Z,87.85
2019-02-14T18:25:29.307Z,89.09
2019-02-14T18:27:57.577Z,89.42
2019-02-14T18:30:25.830Z,89.41
2019-02-14T18:32:54.100Z,89.66
2019-02-14T18:35:22.366Z,89.56
2019-02-14T18:37:50.648Z,89.46
2019-02-14T18:40:18.903Z,89.69
2019-02-14T18:43:27.190Z,90.34
2019-02-14T18:45:55.441Z,90.76
2019-02-14T18:48:23.709Z,90.37
2019-02-14T18:50:51.958Z,90.47
2019-02-14T18:53:20.218Z,90.67
2019-02-14T18:55:48.472Z,90.98
2019-02-14T18:58:25.837Z,91.13
2019-02-14T19:00:46.699Z,91.56
2019-02-14T19:03:14.952Z,92.15
2019-02-14T19:05:43.209Z,92.84
2019-02-14T19:08:11.469Z,93.03
2019-02-14T19:10:59.071Z,92.51
2019-02-14T19:13:27.316Z,92.51
2019-02-14T19:15:55.575Z,91.70
2019-02-14T19:18:23.844Z,91.36
2019-02-14T19:20:52.118Z,91.41
2019-02-14T19:23:23.954Z,91.73
2019-02-14T19:25:50.636Z,92.10
2019-02-14T19:28:18.903Z,92.38
2019-02-14T19:30:47.162Z,92.16
2019-02-14T19:33:15.451Z,92.02
2019-02-14T19:36:02.827Z,91.89
2019-02-14T19:38:31.087Z,91.29
2019-02-14T19:40:59.359Z,91.49
2019-02-14T19:43:27.615Z,91.70
2019-02-14T19:45:55.869Z,91.79
2019-02-14T19:48:24.143Z,91.58
2019-02-14T19:50:52.414Z,91.36
2019-02-14T19:53:20.660Z,91.02
2019-02-14T19:55:48.950Z,90.75
2019-02-14T19:58:17.161Z,90.70
2019-02-14T20:00:45.425Z,90.68
2019-02-14T20:03:13.686Z,90.63
2019-02-14T20:05:41.950Z,91.12
2019-02-14T20:08:10.236Z,91.11
2019-02-14T20:10:38.503Z,90.49
2019-02-14T20:13:06.779Z,90.24
2019-02-14T20:15:37.543Z,89.66
2019-02-14T20:18:05.009Z,89.17
2019-02-14T20:20:33.271Z,88.89
2019-02-14T20:23:01.542Z,88.89
2019-02-14T20:26:03.298Z,88.86
2019-02-14T20:28:31.573Z,88.92
2019-02-14T20:30:59.823Z,88.80
2019-02-14T20:33:28.997Z,88.58
2019-02-14T20:35:57.306Z,88.99
2019-02-14T20:38:25.525Z,89.21
2019-02-14T20:40:53.773Z,89.89
2019-02-14T20:43:22.051Z,90.67
2019-02-14T20:45:50.316Z,90.63
2019-02-14T20:48:18.598Z,90.87
2019-02-14T20:50:46.849Z,90.66
2019-02-14T20:53:15.112Z,90.92
2019-02-14T20:55:43.391Z,91.53
2019-02-14T20:58:11.653Z,92.15
2019-02-14T21:00:40.051Z,92.33
2019-02-14T21:03:08.309Z,92.38
2019-02-14T21:05:36.573Z,92.90
2019-02-14T21:08:04.831Z,92.98
2019-02-14T21:13:42.037Z,93.53
2019-02-14T21:16:10.292Z,93.57
2019-02-14T21:18:38.544Z,93.88
2019-02-14T21:21:06.816Z,94.10
2019-02-14T21:23:35.118Z,93.80
2019-02-14T21:26:03.351Z,93.07
2019-02-14T21:28:31.601Z,93.21
2019-02-14T21:30:59.873Z,93.37
2019-02-14T21:33:28.132Z,93.73
2019-02-14T21:35:56.395Z,93.74
2019-02-14T21:38:24.679Z,93.67
2019-02-14T21:40:52.952Z,93.65
2019-02-14T21:43:21.182Z,93.90
2019-02-14T21:45:49.455Z,93.93
2019-02-14T21:48:17.714Z,94.42
2019-02-14T21:50:46.114Z,95.22
2019-02-14T21:53:14.309Z,95.98
2019-02-14T21:55:42.945Z,96.52
2019-02-14T21:58:11.193Z,96.81
2019-02-14T22:00:39.467Z,97.52
2019-02-14T22:03:07.710Z,97.83
2019-02-14T22:05:35.977Z,98.15
2019-02-14T22:08:04.255Z,97.98
2019-02-14T22:10:32.516Z,98.10
2019-02-14T22:13:00.770Z,97.94
2019-02-14T22:16:02.891Z,98.39
2019-02-14T22:18:31.137Z,98.71
2019-02-14T22:20:59.401Z,98.90
2019-02-14T22:23:27.677Z,98.91
2019-02-14T22:25:55.932Z,98.77
2019-02-14T22:28:24.192Z,98.82
2019-02-14T22:30:52.467Z,99.49
2019-02-14T22:33:20.717Z,99.75
2019-02-14T22:35:48.976Z,100.00
2019-02-14T22:38:17.248Z,100.00
2019-02-14T22:40:45.499Z,100.00
2019-02-14T22:43:13.764Z,100.00
2019-02-14T22:45:42.021Z,100.00
2019-02-14T22:48:10.292Z,100.00
2019-02-14T22:50:38.544Z,100.00
2019-02-14T22:53:06.815Z,100.00
2019-02-14T22:55:35.092Z,100.00
2019-02-14T22:58:03.368Z,100.00
2019-02-14T23:01:11.641Z,100.00
2019-02-14T23:03:40.303Z,100.00
2019-02-14T23:06:08.579Z,100.00
2019-02-14T23:08:36.840Z,100.00
2019-02-14T23:11:05.097Z,100.00
2019-02-14T23:13:33.372Z,100.00
2019-02-14T23:16:01.628Z,100.00
2019-02-14T23:18:29.901Z,100.00
2019-02-14T23:20:58.160Z,100.00
2019-02-14T23:23:26.426Z,100.00
2019-02-14T23:25:54.704Z,100.00
2019-02-14T23:28:22.961Z,100.00
2019-02-14T23:30:51.230Z,100.00
2019-02-14T23:33:19.479Z,100.00
2019-02-14T23:35:47.731Z,100.00
2019-02-14T23:38:15.991Z,100.00
2019-02-14T23:40:44.268Z,100.00
2019-02-14T23:43:12.528Z,100.00
2019-02-14T23:45:40.802Z,100.00
2019-02-14T23:48:09.057Z,100.00
2019-02-14T23:50:37.355Z,100.00
2019-02-14T23:53:05.608Z,100.00
2019-02-14T23:55:33.868Z,100.00
2019-02-14T23:58:02.134Z,100.00
